sensor_id;sensor_type;location;lat;lon;timestamp;P1;durP1;ratioP1;P2;durP2;ratioP2
58982;SDS011;44771;49.982;8.560;2023-09-19T00:02:00;20.73;;;19.73;;
58982;SDS011;44771;49.982;8.560;2023-09-19T00:07:03;19.87;;;18.58;;
58982;SDS011;44771;49.982;8.560;2023-09-19T00:12:06;21.23;;;20.23;;
58982;SDS011;44771;49.982;8.560;2023-09-19T00:17:08;25.58;;;24.37;;
58982;SDS011;44771;49.982;8.560;2023-09-19T00:22:10;27.73;;;26.42;;
58982;SDS011;44771;49.982;8.560;2023-09-19T00:27:13;33.85;;;32.22;;
58982;SDS011;44771;49.982;8.560;2023-09-19T00:32:15;38.72;;;36.83;;
58982;SDS011;44771;49.982;8.560;2023-09-19T00:37:17;42.35;;;40.30;;
58982;SDS011;44771;49.982;8.560;2023-09-19T00:42:20;45.65;;;43.35;;
58982;SDS011;44771;49.982;8.560;2023-09-19T00:47:22;42.22;;;40.15;;
58982;SDS011;44771;49.982;8.560;2023-09-19T00:52:24;40.60;;;38.63;;
58982;SDS011;44771;49.982;8.560;2023-09-19T00:57:29;38.35;;;36.50;;
58982;SDS011;44771;49.982;8.560;2023-09-19T01:02:31;34.30;;;32.60;;
58982;SDS011;44771;49.982;8.560;2023-09-19T01:07:33;34.25;;;32.53;;
58982;SDS011;44771;49.982;8.560;2023-09-19T01:12:39;34.75;;;33.05;;
58982;SDS011;44771;49.982;8.560;2023-09-19T01:17:52;35.95;;;34.22;;
58982;SDS011;44771;49.982;8.560;2023-09-19T01:23:01;34.50;;;32.83;;
58982;SDS011;44771;49.982;8.560;2023-09-19T01:28:24;31.08;;;29.55;;
58982;SDS011;44771;49.982;8.560;2023-09-19T01:38:59;26.50;;;25.17;;
58982;SDS011;44771;49.982;8.560;2023-09-19T01:44:01;27.17;;;25.55;;
58982;SDS011;44771;49.982;8.560;2023-09-19T01:49:13;24.45;;;23.27;;
58982;SDS011;44771;49.982;8.560;2023-09-19T01:54:25;23.40;;;22.05;;
58982;SDS011;44771;49.982;8.560;2023-09-19T01:59:31;21.20;;;20.15;;
58982;SDS011;44771;49.982;8.560;2023-09-19T02:04:39;23.20;;;22.10;;
58982;SDS011;44771;49.982;8.560;2023-09-19T02:09:41;24.75;;;23.58;;
58982;SDS011;44771;49.982;8.560;2023-09-19T02:14:43;26.40;;;25.15;;
58982;SDS011;44771;49.982;8.560;2023-09-19T02:19:46;28.50;;;27.15;;
58982;SDS011;44771;49.982;8.560;2023-09-19T02:24:48;31.08;;;29.58;;
58982;SDS011;44771;49.982;8.560;2023-09-19T02:29:50;33.13;;;31.52;;
58982;SDS011;44771;49.982;8.560;2023-09-19T02:34:53;33.20;;;31.60;;
58982;SDS011;44771;49.982;8.560;2023-09-19T02:39:55;32.08;;;30.58;;
58982;SDS011;44771;49.982;8.560;2023-09-19T02:44:56;35.30;;;33.42;;
58982;SDS011;44771;49.982;8.560;2023-09-19T02:50:00;32.80;;;31.20;;
58982;SDS011;44771;49.982;8.560;2023-09-19T02:55:02;29.23;;;27.83;;
58982;SDS011;44771;49.982;8.560;2023-09-19T03:00:05;26.55;;;25.25;;
58982;SDS011;44771;49.982;8.560;2023-09-19T03:05:09;23.12;;;21.92;;
58982;SDS011;44771;49.982;8.560;2023-09-19T03:10:11;21.55;;;20.45;;
58982;SDS011;44771;49.982;8.560;2023-09-19T03:15:13;18.70;;;17.80;;
58982;SDS011;44771;49.982;8.560;2023-09-19T03:20:17;19.65;;;18.75;;
58982;SDS011;44771;49.982;8.560;2023-09-19T03:25:19;18.87;;;17.98;;
58982;SDS011;44771;49.982;8.560;2023-09-19T03:30:21;19.20;;;18.30;;
58982;SDS011;44771;49.982;8.560;2023-09-19T03:35:24;21.77;;;20.67;;
58982;SDS011;44771;49.982;8.560;2023-09-19T03:40:26;20.67;;;19.67;;
58982;SDS011;44771;49.982;8.560;2023-09-19T03:45:28;20.05;;;18.95;;
58982;SDS011;44771;49.982;8.560;2023-09-19T03:50:31;22.08;;;21.00;;
58982;SDS011;44771;49.982;8.560;2023-09-19T03:55:33;21.37;;;20.37;;
58982;SDS011;44771;49.982;8.560;2023-09-19T04:00:35;20.27;;;19.27;;
58982;SDS011;44771;49.982;8.560;2023-09-19T04:05:41;22.60;;;21.50;;
58982;SDS011;44771;49.982;8.560;2023-09-19T04:10:43;20.92;;;19.92;;
58982;SDS011;44771;49.982;8.560;2023-09-19T04:15:45;20.88;;;19.85;;
58982;SDS011;44771;49.982;8.560;2023-09-19T04:20:49;19.83;;;18.87;;
58982;SDS011;44771;49.982;8.560;2023-09-19T04:25:51;20.92;;;19.90;;
58982;SDS011;44771;49.982;8.560;2023-09-19T04:30:53;21.27;;;20.23;;
58982;SDS011;44771;49.982;8.560;2023-09-19T04:35:56;21.20;;;20.10;;
58982;SDS011;44771;49.982;8.560;2023-09-19T04:41:08;19.12;;;18.20;;
58982;SDS011;44771;49.982;8.560;2023-09-19T04:46:10;17.73;;;16.92;;
58982;SDS011;44771;49.982;8.560;2023-09-19T04:51:13;18.73;;;17.83;;
58982;SDS011;44771;49.982;8.560;2023-09-19T04:56:15;18.98;;;18.08;;
58982;SDS011;44771;49.982;8.560;2023-09-19T05:01:17;18.00;;;17.00;;
58982;SDS011;44771;49.982;8.560;2023-09-19T05:06:20;18.90;;;18.00;;
58982;SDS011;44771;49.982;8.560;2023-09-19T05:11:23;19.37;;;18.37;;
58982;SDS011;44771;49.982;8.560;2023-09-19T05:16:25;19.42;;;18.42;;
58982;SDS011;44771;49.982;8.560;2023-09-19T05:21:31;22.25;;;21.15;;
58982;SDS011;44771;49.982;8.560;2023-09-19T05:26:33;24.30;;;23.12;;
58982;SDS011;44771;49.982;8.560;2023-09-19T05:31:34;25.15;;;23.95;;
58982;SDS011;44771;49.982;8.560;2023-09-19T05:36:38;24.92;;;23.73;;
58982;SDS011;44771;49.982;8.560;2023-09-19T05:41:39;26.58;;;25.27;;
58982;SDS011;44771;49.982;8.560;2023-09-19T05:46:41;26.58;;;25.27;;
58982;SDS011;44771;49.982;8.560;2023-09-19T05:51:45;26.58;;;25.27;;
58982;SDS011;44771;49.982;8.560;2023-09-19T05:56:46;25.90;;;24.65;;
58982;SDS011;44771;49.982;8.560;2023-09-19T06:01:48;25.88;;;24.67;;
58982;SDS011;44771;49.982;8.560;2023-09-19T06:06:51;25.55;;;24.30;;
58982;SDS011;44771;49.982;8.560;2023-09-19T06:11:53;25.02;;;23.83;;
58982;SDS011;44771;49.982;8.560;2023-09-19T06:16:55;24.40;;;23.10;;
58982;SDS011;44771;49.982;8.560;2023-09-19T06:21:58;24.80;;;23.58;;
58982;SDS011;44771;49.982;8.560;2023-09-19T06:27:00;22.77;;;21.58;;
58982;SDS011;44771;49.982;8.560;2023-09-19T06:32:02;21.52;;;20.42;;
58982;SDS011;44771;49.982;8.560;2023-09-19T06:37:09;21.10;;;20.10;;
58982;SDS011;44771;49.982;8.560;2023-09-19T06:42:11;19.48;;;18.55;;
58982;SDS011;44771;49.982;8.560;2023-09-19T06:47:13;18.95;;;18.05;;
58982;SDS011;44771;49.982;8.560;2023-09-19T06:52:16;20.58;;;19.58;;
58982;SDS011;44771;49.982;8.560;2023-09-19T06:57:17;19.95;;;18.95;;
58982;SDS011;44771;49.982;8.560;2023-09-19T07:02:19;21.30;;;20.20;;
58982;SDS011;44771;49.982;8.560;2023-09-19T07:07:22;20.73;;;19.60;;
58982;SDS011;44771;49.982;8.560;2023-09-19T07:12:24;22.35;;;21.25;;
58982;SDS011;44771;49.982;8.560;2023-09-19T07:17:26;21.70;;;20.70;;
58982;SDS011;44771;49.982;8.560;2023-09-19T07:22:29;21.27;;;20.27;;
58982;SDS011;44771;49.982;8.560;2023-09-19T07:27:31;22.50;;;21.40;;
58982;SDS011;44771;49.982;8.560;2023-09-19T07:32:33;20.62;;;19.62;;
58982;SDS011;44771;49.982;8.560;2023-09-19T07:37:36;21.90;;;20.67;;
58982;SDS011;44771;49.982;8.560;2023-09-19T07:42:38;22.15;;;21.08;;
58982;SDS011;44771;49.982;8.560;2023-09-19T07:47:40;22.55;;;21.45;;
58982;SDS011;44771;49.982;8.560;2023-09-19T07:52:46;23.48;;;22.37;;
58982;SDS011;44771;49.982;8.560;2023-09-19T07:57:48;24.75;;;23.58;;
58982;SDS011;44771;49.982;8.560;2023-09-19T08:02:50;25.45;;;24.23;;
58982;SDS011;44771;49.982;8.560;2023-09-19T08:08:00;27.13;;;25.83;;
58982;SDS011;44771;49.982;8.560;2023-09-19T08:13:02;25.95;;;24.70;;
58982;SDS011;44771;49.982;8.560;2023-09-19T08:18:04;27.25;;;25.95;;
58982;SDS011;44771;49.982;8.560;2023-09-19T08:23:07;27.30;;;25.90;;
58982;SDS011;44771;49.982;8.560;2023-09-19T08:28:09;24.27;;;23.08;;
58982;SDS011;44771;49.982;8.560;2023-09-19T08:33:11;22.13;;;21.10;;
58982;SDS011;44771;49.982;8.560;2023-09-19T08:38:14;22.73;;;21.52;;
58982;SDS011;44771;49.982;8.560;2023-09-19T08:43:16;24.92;;;23.73;;
58982;SDS011;44771;49.982;8.560;2023-09-19T08:48:20;24.95;;;23.75;;
58982;SDS011;44771;49.982;8.560;2023-09-19T08:53:31;23.80;;;22.70;;
58982;SDS011;44771;49.982;8.560;2023-09-19T08:58:44;23.20;;;22.08;;
58982;SDS011;44771;49.982;8.560;2023-09-19T09:03:49;24.45;;;23.25;;
58982;SDS011;44771;49.982;8.560;2023-09-19T09:08:53;21.75;;;20.65;;
58982;SDS011;44771;49.982;8.560;2023-09-19T09:13:55;23.87;;;22.73;;
58982;SDS011;44771;49.982;8.560;2023-09-19T09:18:57;31.98;;;30.37;;
58982;SDS011;44771;49.982;8.560;2023-09-19T09:24:00;27.83;;;26.45;;
58982;SDS011;44771;49.982;8.560;2023-09-19T09:29:41;24.63;;;23.42;;
58982;SDS011;44771;49.982;8.560;2023-09-19T09:39:50;22.50;;;21.40;;
58982;SDS011;44771;49.982;8.560;2023-09-19T09:44:57;22.17;;;21.12;;
58982;SDS011;44771;49.982;8.560;2023-09-19T09:50:14;27.23;;;25.95;;
58982;SDS011;44771;49.982;8.560;2023-09-19T09:55:25;26.00;;;24.75;;
58982;SDS011;44771;49.982;8.560;2023-09-19T10:00:27;29.52;;;28.05;;
58982;SDS011;44771;49.982;8.560;2023-09-19T10:05:29;59.72;;;56.72;;
58982;SDS011;44771;49.982;8.560;2023-09-19T10:15:38;51.03;;;48.55;;
58982;SDS011;44771;49.982;8.560;2023-09-19T10:20:40;41.42;;;39.42;;
58982;SDS011;44771;49.982;8.560;2023-09-19T10:25:44;23.75;;;22.65;;
58982;SDS011;44771;49.982;8.560;2023-09-19T10:30:46;22.52;;;21.45;;
58982;SDS011;44771;49.982;8.560;2023-09-19T10:35:50;21.87;;;20.83;;
58982;SDS011;44771;49.982;8.560;2023-09-19T10:40:54;18.30;;;17.45;;
58982;SDS011;44771;49.982;8.560;2023-09-19T10:46:00;26.20;;;24.97;;
58982;SDS011;44771;49.982;8.560;2023-09-19T10:51:04;35.95;;;34.08;;
58982;SDS011;44771;49.982;8.560;2023-09-19T10:56:10;40.88;;;38.85;;
58982;SDS011;44771;49.982;8.560;2023-09-19T11:01:20;31.05;;;29.55;;
58982;SDS011;44771;49.982;8.560;2023-09-19T11:06:22;32.40;;;30.80;;
58982;SDS011;44771;49.982;8.560;2023-09-19T11:11:41;37.38;;;35.55;;
58982;SDS011;44771;49.982;8.560;2023-09-19T11:22:23;27.87;;;26.48;;
58982;SDS011;44771;49.982;8.560;2023-09-19T11:27:26;24.73;;;23.55;;
58982;SDS011;44771;49.982;8.560;2023-09-19T11:38:03;19.75;;;18.85;;
58982;SDS011;44771;49.982;8.560;2023-09-19T11:53:33;21.15;;;20.12;;
58982;SDS011;44771;49.982;8.560;2023-09-19T11:58:36;26.15;;;24.92;;
58982;SDS011;44771;49.982;8.560;2023-09-19T12:03:40;26.33;;;25.05;;
58982;SDS011;44771;49.982;8.560;2023-09-19T12:08:46;22.00;;;20.95;;
58982;SDS011;44771;49.982;8.560;2023-09-19T12:13:50;28.90;;;27.48;;
58982;SDS011;44771;49.982;8.560;2023-09-19T12:18:52;27.25;;;25.67;;
58982;SDS011;44771;49.982;8.560;2023-09-19T12:23:57;25.50;;;24.02;;
58982;SDS011;44771;49.982;8.560;2023-09-19T12:29:16;31.80;;;30.25;;
58982;SDS011;44771;49.982;8.560;2023-09-19T12:34:20;21.85;;;20.73;;
58982;SDS011;44771;49.982;8.560;2023-09-19T12:39:23;24.45;;;23.27;;
58982;SDS011;44771;49.982;8.560;2023-09-19T12:44:27;26.52;;;25.25;;
58982;SDS011;44771;49.982;8.560;2023-09-19T12:49:29;42.85;;;40.75;;
58982;SDS011;44771;49.982;8.560;2023-09-19T12:54:37;45.70;;;43.47;;
58982;SDS011;44771;49.982;8.560;2023-09-19T12:59:41;57.78;;;54.85;;
58982;SDS011;44771;49.982;8.560;2023-09-19T13:04:51;60.78;;;57.83;;
58982;SDS011;44771;49.982;8.560;2023-09-19T13:10:02;48.90;;;46.42;;
58982;SDS011;44771;49.982;8.560;2023-09-19T13:15:09;55.03;;;52.35;;
58982;SDS011;44771;49.982;8.560;2023-09-19T13:20:21;81.10;;;76.90;;
58982;SDS011;44771;49.982;8.560;2023-09-19T13:25:24;95.20;;;90.62;;
58982;SDS011;44771;49.982;8.560;2023-09-19T13:30:27;91.43;;;87.03;;
58982;SDS011;44771;49.982;8.560;2023-09-19T13:35:29;92.22;;;87.72;;
58982;SDS011;44771;49.982;8.560;2023-09-19T13:40:30;77.20;;;73.50;;
58982;SDS011;44771;49.982;8.560;2023-09-19T13:45:35;84.10;;;80.07;;
58982;SDS011;44771;49.982;8.560;2023-09-19T13:50:37;64.15;;;61.08;;
58982;SDS011;44771;49.982;8.560;2023-09-19T13:55:38;50.67;;;48.22;;
58982;SDS011;44771;49.982;8.560;2023-09-19T14:00:42;43.00;;;40.95;;
58982;SDS011;44771;49.982;8.560;2023-09-19T14:05:44;27.42;;;26.12;;
58982;SDS011;44771;49.982;8.560;2023-09-19T14:10:45;28.20;;;26.62;;
58982;SDS011;44771;49.982;8.560;2023-09-19T14:15:49;27.23;;;25.88;;
58982;SDS011;44771;49.982;8.560;2023-09-19T14:20:51;27.05;;;25.75;;
58982;SDS011;44771;49.982;8.560;2023-09-19T14:25:52;27.00;;;25.67;;
58982;SDS011;44771;49.982;8.560;2023-09-19T14:30:56;29.58;;;28.08;;
58982;SDS011;44771;49.982;8.560;2023-09-19T14:35:58;30.08;;;28.60;;
58982;SDS011;44771;49.982;8.560;2023-09-19T14:41:02;31.07;;;29.50;;
58982;SDS011;44771;49.982;8.560;2023-09-19T14:46:06;35.97;;;34.22;;
58982;SDS011;44771;49.982;8.560;2023-09-19T14:51:08;39.67;;;37.53;;
58982;SDS011;44771;49.982;8.560;2023-09-19T14:56:10;38.83;;;36.92;;
58982;SDS011;44771;49.982;8.560;2023-09-19T15:01:13;37.63;;;35.80;;
58982;SDS011;44771;49.982;8.560;2023-09-19T15:06:15;38.17;;;36.35;;
58982;SDS011;44771;49.982;8.560;2023-09-19T15:11:17;27.58;;;26.15;;
58982;SDS011;44771;49.982;8.560;2023-09-19T15:16:20;31.95;;;29.15;;
58982;SDS011;44771;49.982;8.560;2023-09-19T15:21:22;29.85;;;28.38;;
58982;SDS011;44771;49.982;8.560;2023-09-19T15:26:24;27.30;;;26.00;;
58982;SDS011;44771;49.982;8.560;2023-09-19T15:31:27;25.02;;;23.83;;
58982;SDS011;44771;49.982;8.560;2023-09-19T15:36:31;32.72;;;31.12;;
58982;SDS011;44771;49.982;8.560;2023-09-19T15:41:34;43.50;;;41.37;;
58982;SDS011;44771;49.982;8.560;2023-09-19T15:46:38;42.90;;;40.78;;
58982;SDS011;44771;49.982;8.560;2023-09-19T15:51:40;57.50;;;54.72;;
58982;SDS011;44771;49.982;8.560;2023-09-19T15:56:43;52.10;;;49.45;;
58982;SDS011;44771;49.982;8.560;2023-09-19T16:01:47;45.22;;;43.03;;
58982;SDS011;44771;49.982;8.560;2023-09-19T16:06:49;55.35;;;52.67;;
58982;SDS011;44771;49.982;8.560;2023-09-19T16:11:52;46.30;;;44.08;;
58982;SDS011;44771;49.982;8.560;2023-09-19T16:16:55;47.40;;;45.10;;
58982;SDS011;44771;49.982;8.560;2023-09-19T16:21:57;43.60;;;41.47;;
58982;SDS011;44771;49.982;8.560;2023-09-19T16:26:59;50.25;;;47.80;;
58982;SDS011;44771;49.982;8.560;2023-09-19T16:32:02;58.92;;;56.03;;
58982;SDS011;44771;49.982;8.560;2023-09-19T16:37:04;76.70;;;72.93;;
58982;SDS011;44771;49.982;8.560;2023-09-19T16:42:06;94.50;;;90.05;;
58982;SDS011;44771;49.982;8.560;2023-09-19T16:47:23;89.23;;;85.03;;
58982;SDS011;44771;49.982;8.560;2023-09-19T16:52:25;99.07;;;94.50;;
58982;SDS011;44771;49.982;8.560;2023-09-19T16:57:27;91.00;;;86.72;;
58982;SDS011;44771;49.982;8.560;2023-09-19T17:02:30;74.55;;;71.05;;
58982;SDS011;44771;49.982;8.560;2023-09-19T17:07:32;59.05;;;56.20;;
58982;SDS011;44771;49.982;8.560;2023-09-19T17:12:34;41.00;;;39.00;;
58982;SDS011;44771;49.982;8.560;2023-09-19T17:17:37;29.95;;;28.50;;
58982;SDS011;44771;49.982;8.560;2023-09-19T17:22:39;24.30;;;23.10;;
58982;SDS011;44771;49.982;8.560;2023-09-19T17:27:41;19.40;;;18.50;;
58982;SDS011;44771;49.982;8.560;2023-09-19T17:32:44;19.10;;;18.20;;
58982;SDS011;44771;49.982;8.560;2023-09-19T17:37:46;18.35;;;17.45;;
58982;SDS011;44771;49.982;8.560;2023-09-19T17:42:48;19.55;;;18.65;;
58982;SDS011;44771;49.982;8.560;2023-09-19T17:47:51;20.52;;;19.52;;
58982;SDS011;44771;49.982;8.560;2023-09-19T17:52:53;23.10;;;22.00;;
58982;SDS011;44771;49.982;8.560;2023-09-19T17:57:55;22.77;;;21.67;;
58982;SDS011;44771;49.982;8.560;2023-09-19T18:03:02;25.35;;;24.08;;
58982;SDS011;44771;49.982;8.560;2023-09-19T18:08:04;25.12;;;23.92;;
58982;SDS011;44771;49.982;8.560;2023-09-19T18:13:06;27.20;;;25.90;;
58982;SDS011;44771;49.982;8.560;2023-09-19T18:18:10;27.33;;;26.02;;
58982;SDS011;44771;49.982;8.560;2023-09-19T18:23:12;26.50;;;25.20;;
58982;SDS011;44771;49.982;8.560;2023-09-19T18:28:13;23.90;;;22.70;;
58982;SDS011;44771;49.982;8.560;2023-09-19T18:33:17;24.40;;;23.20;;
58982;SDS011;44771;49.982;8.560;2023-09-19T18:38:19;25.60;;;24.37;;
58982;SDS011;44771;49.982;8.560;2023-09-19T18:43:20;22.83;;;21.73;;
58982;SDS011;44771;49.982;8.560;2023-09-19T18:48:24;20.77;;;19.77;;
58982;SDS011;44771;49.982;8.560;2023-09-19T18:53:25;22.98;;;21.75;;
58982;SDS011;44771;49.982;8.560;2023-09-19T18:58:27;20.00;;;19.08;;
58982;SDS011;44771;49.982;8.560;2023-09-19T19:03:31;19.95;;;18.95;;
58982;SDS011;44771;49.982;8.560;2023-09-19T19:08:33;19.08;;;18.17;;
58982;SDS011;44771;49.982;8.560;2023-09-19T19:13:35;19.20;;;18.30;;
58982;SDS011;44771;49.982;8.560;2023-09-19T19:18:39;18.67;;;17.77;;
58982;SDS011;44771;49.982;8.560;2023-09-19T19:23:41;21.80;;;20.70;;
58982;SDS011;44771;49.982;8.560;2023-09-19T19:28:43;21.98;;;20.95;;
58982;SDS011;44771;49.982;8.560;2023-09-19T19:33:47;22.48;;;21.37;;
58982;SDS011;44771;49.982;8.560;2023-09-19T19:38:48;21.42;;;20.42;;
58982;SDS011;44771;49.982;8.560;2023-09-19T19:43:50;22.00;;;20.90;;
58982;SDS011;44771;49.982;8.560;2023-09-19T19:48:53;21.52;;;20.42;;
58982;SDS011;44771;49.982;8.560;2023-09-19T19:53:55;22.27;;;21.20;;
58982;SDS011;44771;49.982;8.560;2023-09-19T19:58:57;21.30;;;20.30;;
58982;SDS011;44771;49.982;8.560;2023-09-19T20:04:00;22.20;;;21.12;;
58982;SDS011;44771;49.982;8.560;2023-09-19T20:09:02;19.27;;;18.37;;
58982;SDS011;44771;49.982;8.560;2023-09-19T20:14:04;21.23;;;20.23;;
58982;SDS011;44771;49.982;8.560;2023-09-19T20:19:08;25.60;;;24.30;;
58982;SDS011;44771;49.982;8.560;2023-09-19T20:24:10;27.52;;;26.23;;
58982;SDS011;44771;49.982;8.560;2023-09-19T20:29:12;30.17;;;28.73;;
58982;SDS011;44771;49.982;8.560;2023-09-19T20:34:15;32.72;;;31.10;;
58982;SDS011;44771;49.982;8.560;2023-09-19T20:39:17;36.53;;;34.75;;
58982;SDS011;44771;49.982;8.560;2023-09-19T20:44:18;37.17;;;35.38;;
58982;SDS011;44771;49.982;8.560;2023-09-19T20:49:22;37.63;;;35.83;;
58982;SDS011;44771;49.982;8.560;2023-09-19T20:54:24;37.88;;;36.05;;
58982;SDS011;44771;49.982;8.560;2023-09-19T20:59:25;43.85;;;41.75;;
58982;SDS011;44771;49.982;8.560;2023-09-19T21:04:29;48.45;;;46.13;;
58982;SDS011;44771;49.982;8.560;2023-09-19T21:09:31;59.60;;;56.75;;
58982;SDS011;44771;49.982;8.560;2023-09-19T21:14:32;62.03;;;59.05;;
58982;SDS011;44771;49.982;8.560;2023-09-19T21:19:39;63.42;;;60.38;;
58982;SDS011;44771;49.982;8.560;2023-09-19T21:24:40;65.25;;;62.10;;
58982;SDS011;44771;49.982;8.560;2023-09-19T21:29:42;69.95;;;66.60;;
58982;SDS011;44771;49.982;8.560;2023-09-19T21:34:45;71.00;;;67.62;;
58982;SDS011;44771;49.982;8.560;2023-09-19T21:39:47;68.47;;;65.20;;
58982;SDS011;44771;49.982;8.560;2023-09-19T21:44:49;70.72;;;67.35;;
58982;SDS011;44771;49.982;8.560;2023-09-19T21:49:52;75.55;;;71.85;;
58982;SDS011;44771;49.982;8.560;2023-09-19T21:54:54;75.18;;;71.60;;
58982;SDS011;44771;49.982;8.560;2023-09-19T21:59:56;93.05;;;88.65;;
58982;SDS011;44771;49.982;8.560;2023-09-19T22:04:59;102.07;;;97.28;;
58982;SDS011;44771;49.982;8.560;2023-09-19T22:10:01;102.68;;;97.78;;
58982;SDS011;44771;49.982;8.560;2023-09-19T22:15:03;110.03;;;104.80;;
58982;SDS011;44771;49.982;8.560;2023-09-19T22:20:07;104.95;;;99.93;;
58982;SDS011;44771;49.982;8.560;2023-09-19T22:25:09;104.47;;;99.47;;
58982;SDS011;44771;49.982;8.560;2023-09-19T22:30:12;96.10;;;91.47;;
58982;SDS011;44771;49.982;8.560;2023-09-19T22:35:15;101.95;;;97.05;;
58982;SDS011;44771;49.982;8.560;2023-09-19T22:40:17;95.93;;;91.28;;
58982;SDS011;44771;49.982;8.560;2023-09-19T22:45:19;76.35;;;72.65;;
58982;SDS011;44771;49.982;8.560;2023-09-19T22:50:22;66.70;;;63.45;;
58982;SDS011;44771;49.982;8.560;2023-09-19T22:55:24;57.88;;;55.05;;
58982;SDS011;44771;49.982;8.560;2023-09-19T23:00:26;44.65;;;42.45;;
58982;SDS011;44771;49.982;8.560;2023-09-19T23:05:34;37.28;;;35.42;;
58982;SDS011;44771;49.982;8.560;2023-09-19T23:10:39;31.10;;;29.60;;
58982;SDS011;44771;49.982;8.560;2023-09-19T23:15:41;29.27;;;27.87;;
58982;SDS011;44771;49.982;8.560;2023-09-19T23:20:45;31.83;;;30.27;;
58982;SDS011;44771;49.982;8.560;2023-09-19T23:25:46;32.28;;;30.73;;
58982;SDS011;44771;49.982;8.560;2023-09-19T23:30:48;33.60;;;31.98;;
58982;SDS011;44771;49.982;8.560;2023-09-19T23:35:51;37.72;;;34.67;;
58982;SDS011;44771;49.982;8.560;2023-09-19T23:40:53;34.35;;;32.70;;
58982;SDS011;44771;49.982;8.560;2023-09-19T23:45:55;37.30;;;35.50;;
58982;SDS011;44771;49.982;8.560;2023-09-19T23:50:58;30.08;;;28.60;;
58982;SDS011;44771;49.982;8.560;2023-09-19T23:56:03;26.70;;;25.40;;
